logo
Search for airport 
image banner adimage banner adimage banner ad
image banner ad

LSTA - Raron

Located in Visp, Switzerland

ICAO - LSTA, IATA -

Data provided by Airmate  

General information

Coordinates: N46°18'16" E7°49'18"
Elevation is 2093 feet MSL.
Magnetic variation is 2.750° East
View others Airports in Valais

Operational data

Special qualification required
Current time UTC:
Current local time:
Weather at : LSGS - Sion ( 39 km )
METAR: LSGS 202250Z AUTO VRB02KT CAVOK 04/M00 Q1021
TAF: TAF LSGS 201425Z 2015/2024 VRB02KT 9999 SCT070
View NOTAMs / SUP AIP / TFR affecting this airport [VIEW]
Communications frequencies: [VIEW]

Runways:

RWY identifierQFULength (ft)Width (ft)SurfaceLDA (ft)
1091°2762131ASPH
28271°2762131ASPH

Airport contact information

Address: Visp Switzerland

Satellite view of LSTA